createdAt,value
2022-09-28T00:01:20.692Z,1.38
2022-09-28T00:03:48.981Z,1.17
2022-09-28T00:06:20.024Z,1.20
2022-09-28T00:08:47.106Z,1.77
2022-09-28T00:11:15.654Z,1.67
2022-09-28T00:13:43.348Z,1.70
2022-09-28T00:16:16.918Z,1.00
2022-09-28T00:18:44.834Z,1.60
2022-09-28T00:21:18.012Z,1.52
2022-09-28T00:24:04.069Z,0.90
2022-09-28T00:26:32.896Z,1.38
2022-09-28T00:29:01.510Z,1.70
2022-09-28T00:31:31.721Z,1.60
2022-09-28T00:34:00.472Z,1.40
2022-09-28T00:36:30.169Z,1.33
2022-09-28T00:38:58.302Z,1.27
2022-09-28T00:41:27.397Z,1.27
2022-09-28T00:44:15.200Z,1.30
2022-09-28T00:46:42.106Z,1.15
2022-09-28T00:49:16.089Z,1.02
2022-09-28T00:51:45.512Z,1.17
2022-09-28T00:54:14.702Z,1.10
2022-09-28T00:56:44.512Z,1.10
2022-09-28T00:59:11.370Z,1.30
2022-09-28T01:01:38.996Z,1.13
2022-09-28T01:04:06.893Z,1.38
2022-09-28T01:06:38.142Z,1.55
2022-09-28T01:09:10.055Z,1.50
2022-09-28T01:11:38.489Z,1.20
2022-09-28T01:14:13.003Z,1.30
2022-09-28T01:17:08.452Z,1.00
2022-09-28T01:20:06.606Z,1.10
2022-09-28T01:22:47.636Z,1.17
2022-09-28T01:25:29.887Z,1.33
2022-09-28T01:28:21.037Z,1.38
2022-09-28T01:31:15.289Z,1.60
2022-09-28T01:33:47.497Z,1.17
2022-09-28T01:36:25.215Z,1.30
2022-09-28T01:39:08.094Z,1.20
2022-09-28T01:41:38.470Z,1.33
2022-09-28T01:44:09.797Z,1.17
2022-09-28T01:46:42.101Z,1.20
2022-09-28T01:49:14.930Z,1.10
2022-09-28T01:51:59.176Z,1.10
2022-09-28T01:54:38.876Z,1.20
2022-09-28T01:57:11.999Z,1.00
2022-09-28T01:59:46.554Z,1.42
2022-09-28T02:02:18.908Z,1.38
2022-09-28T02:04:51.705Z,1.30
2022-09-28T02:10:01.150Z,1.23
2022-09-28T02:12:36.083Z,0.82
2022-09-28T02:15:20.861Z,1.00
2022-09-28T02:17:48.119Z,1.50
2022-09-28T02:20:17.356Z,1.40
2022-09-28T02:22:49.396Z,1.33
2022-09-28T02:25:40.397Z,1.25
2022-09-28T02:28:11.173Z,1.40
2022-09-28T02:30:40.773Z,1.70
2022-09-28T02:33:22.663Z,1.65
2022-09-28T02:35:50.129Z,1.40
2022-09-28T02:38:20.317Z,1.30
2022-09-28T02:41:02.241Z,1.45
2022-09-28T02:43:50.122Z,1.08
2022-09-28T02:46:30.487Z,1.63
2022-09-28T02:49:21.861Z,1.20
2022-09-28T02:52:16.754Z,1.08
2022-09-28T02:54:54.275Z,1.30
2022-09-28T02:57:38.095Z,1.10
2022-09-28T03:00:33.774Z,1.40
2022-09-28T03:03:32.611Z,1.45
2022-09-28T03:06:05.285Z,1.10
2022-09-28T03:08:54.565Z,1.55
2022-09-28T03:11:53.548Z,1.85
2022-09-28T03:14:20.780Z,1.40
2022-09-28T03:16:53.996Z,1.33
2022-09-28T03:19:27.934Z,1.13
2022-09-28T03:21:55.826Z,1.63
2022-09-28T03:24:22.580Z,1.52
2022-09-28T03:26:49.855Z,1.33
2022-09-28T03:31:47.931Z,1.25
2022-09-28T03:34:14.998Z,1.67
2022-09-28T03:36:43.052Z,1.27
2022-09-28T03:39:10.077Z,1.83
2022-09-28T03:41:38.284Z,1.17
2022-09-28T03:44:05.258Z,1.80
2022-09-28T03:46:33.160Z,1.95
2022-09-28T03:49:05.349Z,1.42
2022-09-28T03:51:32.088Z,0.80
2022-09-28T03:56:26.429Z,1.40
2022-09-28T03:58:53.057Z,2.10
2022-09-28T04:03:48.077Z,1.77
2022-09-28T04:06:15.663Z,1.88
2022-09-28T04:08:43.408Z,2.00
2022-09-28T04:11:10.651Z,2.00
2022-09-28T04:13:37.376Z,1.60
2022-09-28T04:16:06.458Z,1.60
2022-09-28T04:18:35.279Z,1.80
2022-09-28T04:21:11.161Z,2.25
2022-09-28T04:23:47.476Z,1.70
2022-09-28T04:26:22.655Z,1.83
2022-09-28T04:29:09.266Z,2.15
2022-09-28T04:31:45.949Z,1.08
2022-09-28T04:34:17.377Z,1.73
2022-09-28T04:36:45.469Z,2.40
2022-09-28T04:39:17.080Z,2.08
2022-09-28T04:41:53.684Z,1.85
2022-09-28T04:44:20.376Z,1.92
2022-09-28T04:46:49.152Z,1.67
2022-09-28T04:52:18.693Z,2.13
2022-09-28T04:54:48.509Z,2.17
2022-09-28T04:57:16.285Z,3.20
2022-09-28T05:02:09.637Z,1.80
2022-09-28T05:04:56.555Z,1.42
2022-09-28T05:07:42.879Z,1.83
2022-09-28T05:10:11.347Z,2.40
2022-09-28T05:12:39.711Z,2.72
2022-09-28T05:15:06.718Z,1.80
2022-09-28T05:17:33.780Z,1.95
2022-09-28T05:20:10.142Z,2.22
2022-09-28T05:22:37.011Z,1.85
2022-09-28T05:25:05.447Z,2.20
2022-09-28T05:27:43.400Z,1.70
2022-09-28T05:30:24.567Z,1.80
2022-09-28T05:33:05.710Z,1.65
2022-09-28T05:35:44.721Z,2.35
2022-09-28T05:40:38.653Z,1.52
2022-09-28T05:43:05.590Z,1.63
2022-09-28T05:45:33.200Z,1.65
2022-09-28T05:48:00.503Z,2.60
2022-09-28T05:50:28.211Z,1.80
2022-09-28T05:53:02.811Z,1.63
2022-09-28T05:55:29.966Z,2.10
2022-09-28T05:58:01.373Z,1.45
2022-09-28T06:00:34.471Z,1.77
2022-09-28T06:03:09.198Z,1.27
2022-09-28T06:05:39.481Z,1.85
2022-09-28T06:08:08.428Z,2.03
2022-09-28T06:10:36.006Z,2.00
2022-09-28T06:13:03.307Z,1.40
2022-09-28T06:15:32.236Z,1.80
2022-09-28T06:18:06.431Z,1.45
2022-09-28T06:20:53.439Z,2.10
2022-09-28T06:23:30.546Z,1.98
2022-09-28T06:25:59.883Z,1.95
2022-09-28T06:28:27.185Z,1.77
2022-09-28T06:30:54.603Z,1.65
2022-09-28T06:33:22.047Z,1.77
2022-09-28T06:35:48.708Z,1.40
2022-09-28T06:40:42.994Z,2.35
2022-09-28T06:46:10.542Z,1.63
2022-09-28T06:48:55.971Z,1.60
2022-09-28T06:51:52.018Z,1.13
2022-09-28T09:08:13.557Z,2.30
2022-09-28T09:10:52.468Z,2.17
2022-09-28T09:13:40.493Z,2.40
2022-09-28T09:16:26.379Z,2.10
2022-09-28T09:19:14.683Z,2.40
2022-09-28T09:22:39.124Z,2.63
2022-09-28T09:25:18.278Z,2.13
2022-09-28T09:27:50.645Z,2.00
2022-09-28T09:30:28.698Z,2.67
2022-09-28T09:33:42.604Z,2.70
2022-09-28T09:37:03.305Z,2.42
2022-09-28T09:40:14.853Z,2.60
2022-09-28T09:43:27.928Z,2.70
2022-09-28T09:46:18.053Z,2.50
2022-09-28T09:49:12.247Z,2.50
2022-09-28T09:52:00.944Z,7.10
2022-09-28T09:54:42.179Z,5.38
2022-09-28T09:57:15.893Z,4.90
2022-09-28T10:00:03.235Z,4.35
2022-09-28T10:02:49.801Z,3.67
2022-09-28T10:05:35.871Z,2.63
2022-09-28T10:08:12.081Z,3.15
2022-09-28T10:10:49.579Z,2.90
2022-09-28T10:13:19.788Z,2.97
2022-09-28T10:15:47.874Z,2.67
2022-09-28T10:18:33.466Z,3.08
2022-09-28T10:21:15.598Z,3.22
2022-09-28T10:23:57.143Z,3.15
2022-09-28T10:26:40.821Z,3.30
2022-09-28T10:30:00.819Z,3.55
2022-09-28T10:32:39.165Z,3.30
2022-09-28T10:35:18.712Z,3.10
2022-09-28T10:38:03.322Z,3.38
2022-09-28T10:40:54.515Z,2.72
2022-09-28T10:44:08.668Z,2.38
2022-09-28T10:47:02.596Z,2.13
2022-09-28T10:49:47.239Z,2.00
2022-09-28T10:52:28.211Z,2.05
2022-09-28T10:54:55.922Z,2.35
2022-09-28T10:57:35.909Z,2.10
2022-09-28T11:00:08.162Z,2.10
2022-09-28T11:02:41.735Z,1.70
2022-09-28T11:05:28.023Z,1.77
2022-09-28T11:08:00.748Z,1.50
2022-09-28T11:10:34.755Z,1.52
2022-09-28T11:13:10.386Z,2.08
2022-09-28T11:15:46.214Z,1.67
2022-09-28T11:18:48.799Z,6.80
2022-09-28T11:22:18.393Z,2.42
2022-09-28T11:25:49.324Z,1.13
2022-09-28T11:30:54.860Z,1.30
2022-09-28T11:33:38.855Z,1.50
2022-09-28T11:36:46.798Z,1.52
2022-09-28T11:39:33.567Z,1.25
2022-09-28T11:43:01.706Z,0.90
2022-09-28T11:45:54.759Z,1.30
2022-09-28T11:48:34.692Z,1.17
2022-09-28T11:51:12.883Z,1.00
2022-09-28T11:53:45.606Z,1.05
2022-09-28T11:56:32.218Z,1.00
2022-09-28T11:59:06.151Z,0.98
2022-09-28T12:01:51.633Z,0.82
2022-09-28T12:04:38.527Z,1.02
2022-09-28T12:07:24.659Z,0.82
2022-09-28T12:09:57.848Z,1.30
2022-09-28T12:12:54.899Z,0.80
2022-09-28T12:15:25.725Z,0.60
2022-09-28T12:18:14.576Z,0.70
2022-09-28T12:21:05.340Z,0.60
2022-09-28T12:26:26.272Z,0.80
2022-09-28T12:29:01.278Z,0.82
2022-09-28T12:31:50.726Z,0.80
2022-09-28T12:34:17.840Z,0.60
2022-09-28T12:37:02.912Z,1.15
2022-09-28T12:39:56.981Z,1.02
2022-09-28T12:42:29.199Z,1.17
2022-09-28T12:45:10.045Z,0.60
2022-09-28T12:48:07.968Z,0.82
2022-09-28T12:50:58.131Z,0.75
2022-09-28T12:53:29.784Z,0.65
2022-09-28T12:56:06.319Z,0.57
2022-09-28T12:58:48.444Z,0.60
2022-09-28T13:01:38.903Z,0.60
2022-09-28T13:04:13.504Z,0.50
2022-09-28T13:06:52.222Z,0.80
2022-09-28T13:09:25.657Z,0.55
2022-09-28T13:11:54.682Z,0.40
2022-09-28T13:14:43.878Z,0.63
2022-09-28T13:17:22.735Z,0.68
2022-09-28T13:19:55.330Z,0.70
2022-09-28T13:22:44.079Z,0.65
2022-09-28T13:25:20.021Z,0.40
2022-09-28T13:28:06.370Z,0.52
2022-09-28T13:30:36.612Z,0.63
2022-09-28T13:33:06.053Z,0.75
2022-09-28T13:35:46.897Z,0.90
2022-09-28T13:38:17.577Z,0.90
2022-09-28T13:41:06.008Z,0.63
2022-09-28T13:44:17.016Z,0.77
2022-09-28T13:47:26.488Z,0.80
2022-09-28T13:50:16.760Z,0.80
2022-09-28T13:52:54.543Z,0.70
2022-09-28T13:55:24.778Z,0.60
2022-09-28T13:58:01.060Z,0.82
2022-09-28T14:00:58.397Z,0.52
2022-09-28T14:03:27.524Z,0.75
2022-09-28T14:06:31.534Z,0.82
2022-09-28T14:09:14.062Z,0.57
2022-09-28T14:11:54.377Z,0.60
2022-09-28T14:14:44.546Z,0.75
2022-09-28T14:17:30.378Z,0.60
2022-09-28T14:20:12.931Z,0.60
2022-09-28T14:23:05.671Z,0.60
2022-09-28T14:25:45.651Z,0.70
2022-09-28T14:28:24.813Z,0.70
2022-09-28T14:30:56.813Z,0.70
2022-09-28T14:33:23.944Z,0.63
2022-09-28T14:36:45.647Z,0.85
2022-09-28T14:39:46.552Z,0.90
2022-09-28T14:42:21.520Z,0.80
2022-09-28T14:45:06.368Z,1.33
2022-09-28T14:47:40.664Z,0.80
2022-09-28T14:50:30.108Z,0.95
2022-09-28T14:53:12.430Z,1.00
2022-09-28T14:55:48.191Z,0.93
2022-09-28T14:58:19.791Z,1.10
2022-09-28T15:00:49.115Z,0.80
2022-09-28T15:03:17.268Z,0.90
2022-09-28T15:05:49.631Z,1.00
2022-09-28T15:08:21.037Z,1.05
2022-09-28T15:10:49.997Z,0.88
2022-09-28T15:13:27.453Z,0.77
2022-09-28T15:16:16.678Z,0.93
2022-09-28T15:19:13.609Z,0.90
2022-09-28T15:21:50.372Z,1.05
2022-09-28T15:24:32.475Z,1.25
2022-09-28T15:27:02.622Z,1.00
2022-09-28T15:29:33.355Z,1.10
2022-09-28T15:32:00.321Z,1.27
2022-09-28T15:34:52.129Z,1.17
2022-09-28T15:37:24.098Z,1.50
2022-09-28T15:39:52.930Z,1.20
2022-09-28T15:42:20.540Z,1.50
2022-09-28T15:45:26.958Z,1.20
2022-09-28T15:48:19.139Z,1.92
2022-09-28T15:51:13.086Z,1.58
2022-09-28T15:54:09.364Z,1.60
2022-09-28T15:56:59.945Z,1.70
2022-09-28T15:59:40.224Z,1.90
2022-09-28T16:02:16.802Z,1.60
2022-09-28T16:04:50.673Z,1.80
2022-09-28T16:07:25.307Z,1.48
2022-09-28T16:10:01.899Z,1.48
2022-09-28T16:12:37.724Z,1.50
2022-09-28T16:15:21.799Z,2.33
2022-09-28T16:17:54.028Z,1.40
2022-09-28T16:20:23.184Z,1.60
2022-09-28T16:22:50.749Z,1.77
2022-09-28T16:25:24.732Z,1.85
2022-09-28T16:27:54.228Z,1.77
2022-09-28T16:30:24.954Z,2.33
2022-09-28T16:32:56.476Z,2.67
2022-09-28T16:35:25.788Z,2.70
2022-09-28T16:38:14.438Z,2.90
2022-09-28T16:40:43.250Z,3.15
2022-09-28T16:43:19.461Z,2.53
2022-09-28T16:45:46.523Z,2.78
2022-09-28T16:48:20.406Z,2.90
2022-09-28T16:50:47.529Z,3.15
2022-09-28T16:53:35.822Z,3.13
2022-09-28T16:56:04.483Z,3.08
2022-09-28T16:58:32.066Z,3.08
2022-09-28T17:01:00.153Z,3.15
2022-09-28T17:03:28.166Z,2.83
2022-09-28T17:05:55.760Z,3.28
2022-09-28T17:08:24.821Z,3.38
2022-09-28T17:11:16.927Z,3.10
2022-09-28T17:13:46.110Z,2.80
2022-09-28T17:16:17.747Z,3.50
2022-09-28T17:18:46.067Z,3.25
2022-09-28T17:21:18.519Z,3.58
2022-09-28T17:23:46.926Z,3.40
2022-09-28T17:26:31.026Z,3.60
2022-09-28T17:28:59.501Z,3.35
2022-09-28T17:31:26.834Z,3.70
2022-09-28T17:33:54.747Z,3.17
2022-09-28T17:36:22.217Z,3.22
2022-09-28T17:38:51.192Z,3.58
2022-09-28T17:41:20.797Z,3.42
2022-09-28T17:43:49.063Z,3.38
2022-09-28T17:46:29.083Z,2.95
2022-09-28T17:48:59.655Z,4.00
2022-09-28T17:51:35.174Z,3.67
2022-09-28T17:54:02.290Z,4.30
2022-09-28T17:56:32.506Z,3.78
2022-09-28T17:59:02.974Z,4.05
2022-09-28T18:01:34.328Z,4.28
2022-09-28T18:04:03.187Z,4.32
2022-09-28T18:06:30.119Z,4.65
2022-09-28T18:08:56.738Z,4.30
2022-09-28T18:13:49.895Z,4.55
2022-09-28T18:16:19.736Z,5.30
2022-09-28T18:18:47.426Z,5.90
2022-09-28T18:21:14.223Z,5.00
2022-09-28T18:23:41.166Z,5.88
2022-09-28T18:26:13.022Z,5.30
2022-09-28T18:28:40.267Z,5.53
2022-09-28T18:31:11.638Z,5.72
2022-09-28T18:33:38.836Z,5.13
2022-09-28T18:36:07.043Z,5.00
2022-09-28T18:38:37.673Z,4.03
2022-09-28T18:41:22.955Z,4.63
2022-09-28T18:43:50.419Z,4.70
2022-09-28T18:46:18.435Z,5.65
2022-09-28T18:48:46.396Z,5.03
2022-09-28T18:51:13.379Z,5.55
2022-09-28T18:53:40.492Z,5.63
2022-09-28T18:56:12.472Z,6.28
2022-09-28T18:58:40.516Z,6.20
2022-09-28T19:01:28.946Z,5.65
2022-09-28T19:03:56.744Z,5.30
2022-09-28T19:06:23.478Z,5.88
2022-09-28T19:08:55.692Z,7.10
2022-09-28T19:11:23.848Z,7.07
2022-09-28T19:13:53.370Z,7.95
2022-09-28T19:16:25.734Z,8.95
2022-09-28T19:18:53.906Z,7.22
2022-09-28T19:21:21.094Z,7.07
2022-09-28T19:23:49.954Z,7.32
2022-09-28T19:26:20.401Z,6.63
2022-09-28T19:28:48.663Z,7.43
2022-09-28T19:31:16.204Z,7.20
2022-09-28T19:33:45.879Z,7.45
2022-09-28T19:36:19.039Z,6.32
2022-09-28T19:38:46.230Z,5.65
2022-09-28T19:41:39.597Z,6.65
2022-09-28T19:44:29.983Z,6.97
2022-09-28T19:47:04.251Z,6.13
2022-09-28T19:49:33.299Z,6.38
2022-09-28T19:52:16.177Z,6.18
2022-09-28T19:54:45.520Z,7.45
2022-09-28T19:57:14.493Z,6.40
2022-09-28T19:59:41.623Z,7.82
2022-09-28T20:02:10.465Z,8.40
2022-09-28T20:04:37.485Z,7.38
2022-09-28T20:07:05.237Z,6.45
2022-09-28T20:09:33.259Z,6.57
2022-09-28T20:12:05.239Z,7.22
2022-09-28T20:14:36.537Z,8.90
2022-09-28T20:17:06.162Z,8.32
2022-09-28T20:19:33.669Z,11.93
2022-09-28T20:22:02.856Z,12.55
2022-09-28T20:24:31.559Z,9.27
2022-09-28T20:26:58.733Z,7.53
2022-09-28T20:29:25.579Z,8.05
2022-09-28T20:31:52.315Z,7.30
2022-09-28T20:36:45.745Z,6.80
2022-09-28T20:39:13.018Z,6.22
2022-09-28T20:41:40.298Z,6.63
2022-09-28T20:44:07.273Z,5.90
2022-09-28T20:46:35.526Z,6.13
2022-09-28T20:49:03.070Z,6.40
2022-09-28T20:51:30.085Z,6.55
2022-09-28T20:53:59.239Z,6.38
2022-09-28T20:56:26.898Z,7.75
2022-09-28T20:58:54.380Z,5.93
2022-09-28T21:01:30.282Z,6.68
2022-09-28T21:03:59.553Z,5.20
2022-09-28T21:06:29.553Z,6.00
2022-09-28T21:08:56.774Z,5.70
2022-09-28T21:11:25.334Z,5.13
2022-09-28T21:13:53.751Z,5.40
2022-09-28T21:16:20.707Z,5.38
2022-09-28T21:18:47.904Z,5.05
2022-09-28T21:21:17.106Z,4.88
2022-09-28T21:23:46.675Z,4.47
2022-09-28T21:26:27.565Z,4.25
2022-09-28T21:29:01.270Z,4.03
2022-09-28T21:31:31.955Z,4.32
2022-09-28T21:33:59.976Z,4.88
2022-09-28T21:36:26.795Z,4.38
2022-09-28T21:38:56.197Z,5.25
2022-09-28T21:41:26.138Z,5.40
2022-09-28T21:43:53.089Z,5.40
2022-09-28T21:46:20.010Z,4.97
2022-09-28T21:48:50.704Z,6.38
2022-09-28T21:51:17.657Z,5.78
2022-09-28T21:53:44.398Z,5.75
2022-09-28T21:58:40.160Z,4.97
2022-09-28T22:01:13.193Z,5.43
2022-09-28T22:03:41.250Z,4.70
2022-09-28T22:06:08.562Z,4.70
2022-09-28T22:08:36.934Z,5.50
2022-09-28T22:11:05.711Z,5.22
2022-09-28T22:13:43.199Z,4.65
2022-09-28T22:16:11.477Z,4.30
2022-09-28T22:18:38.918Z,4.75
2022-09-28T22:21:08.906Z,4.65
2022-09-28T22:23:36.631Z,4.82
2022-09-28T22:26:07.072Z,5.10
2022-09-28T22:28:34.817Z,4.22
2022-09-28T22:31:01.736Z,5.80
2022-09-28T22:33:28.634Z,4.30
2022-09-28T22:35:55.520Z,5.07
2022-09-28T22:38:24.659Z,4.88
2022-09-28T22:40:54.645Z,5.15
2022-09-28T22:43:26.204Z,4.30
2022-09-28T22:46:06.697Z,4.53
2022-09-28T22:48:34.928Z,5.22
2022-09-28T22:51:03.058Z,4.90
2022-09-28T22:53:30.424Z,4.72
2022-09-28T22:55:59.030Z,4.63
2022-09-28T22:58:25.703Z,4.45
2022-09-28T23:00:52.572Z,5.30
2022-09-28T23:05:54.145Z,6.18
2022-09-28T23:08:21.326Z,5.82
2022-09-28T23:10:48.059Z,5.88
2022-09-28T23:15:41.543Z,5.38
2022-09-28T23:18:12.443Z,5.13
2022-09-28T23:20:39.739Z,5.50
2022-09-28T23:23:06.722Z,5.80
2022-09-28T23:25:33.645Z,5.47
2022-09-28T23:28:01.398Z,6.30
2022-09-28T23:30:28.123Z,6.03
2022-09-28T23:32:54.953Z,5.20
2022-09-28T23:35:21.848Z,5.93
2022-09-28T23:37:51.981Z,5.60
2022-09-28T23:40:18.965Z,5.78
2022-09-28T23:42:45.607Z,5.15
2022-09-28T23:47:40.512Z,5.53
2022-09-28T23:50:07.799Z,5.22
2022-09-28T23:52:35.063Z,5.00
2022-09-28T23:55:01.853Z,5.03
2022-09-28T23:57:29.069Z,5.55
2022-09-28T23:59:55.915Z,5.30
